PN42 weather

Practice Football Field
Indiana, Pennsylvania, United States

Public forecast

Using degrees Fahrenheit for public forecast. Weather courtesy of forecast.io.

METAR (pilot weather report)

Closest report is Indiana County/Jimmy Stewart Fld/ Airport, 2.1 nm (3.8 km) ENE. Retrieved 2019/07/17 11:35 UTC (10 minutes ago):

KIDI 171135Z AUTO 00000KT 10SM CLR 23/21 A3004 RMK A01

TAF (pilot weather forecast)

Closest forecast is John Murtha Johnstown Cambria County Airport, 23.5 nm (43.5 km) SE. Retrieved 2019/07/17 06:45 UTC (5 hours ago):

TAF KJST 170542Z 1706/1806 22005KT P6SM VCSH SCT050 BKN100 FM171200 22008KT 6SM HZ SCT050 BKN100 FM171800 23010KT 5SM SHRA HZ VCTS OVC035CB FM180000 24005KT 4SM -SHRA BR OVC025